sensor_id;sensor_type;location;lat;lon;timestamp;P1;durP1;ratioP1;P2;durP2;ratioP2
24084;SDS011;12268;52.110;5.548;2024-02-21T00:07:08;15.93;;;7.70;;
24084;SDS011;12268;52.110;5.548;2024-02-21T00:09:33;15.18;;;6.68;;
24084;SDS011;12268;52.110;5.548;2024-02-21T00:11:59;17.67;;;8.57;;
24084;SDS011;12268;52.110;5.548;2024-02-21T00:14:26;12.43;;;6.78;;
24084;SDS011;12268;52.110;5.548;2024-02-21T00:16:51;20.77;;;7.38;;
24084;SDS011;12268;52.110;5.548;2024-02-21T00:19:17;16.70;;;6.43;;
24084;SDS011;12268;52.110;5.548;2024-02-21T00:21:42;15.18;;;7.30;;
24084;SDS011;12268;52.110;5.548;2024-02-21T00:24:08;15.55;;;7.00;;
24084;SDS011;12268;52.110;5.548;2024-02-21T00:26:34;10.50;;;6.20;;
24084;SDS011;12268;52.110;5.548;2024-02-21T00:28:59;13.60;;;7.30;;
24084;SDS011;12268;52.110;5.548;2024-02-21T00:31:25;18.65;;;7.63;;
24084;SDS011;12268;52.110;5.548;2024-02-21T00:33:50;15.07;;;7.22;;
24084;SDS011;12268;52.110;5.548;2024-02-21T00:36:16;16.33;;;6.22;;
24084;SDS011;12268;52.110;5.548;2024-02-21T00:38:42;18.05;;;7.15;;
24084;SDS011;12268;52.110;5.548;2024-02-21T00:41:07;10.65;;;4.57;;
24084;SDS011;12268;52.110;5.548;2024-02-21T00:43:33;10.00;;;5.10;;
24084;SDS011;12268;52.110;5.548;2024-02-21T00:45:58;10.52;;;6.68;;
24084;SDS011;12268;52.110;5.548;2024-02-21T00:48:24;16.17;;;7.50;;
24084;SDS011;12268;52.110;5.548;2024-02-21T00:50:50;13.32;;;7.03;;
24084;SDS011;12268;52.110;5.548;2024-02-21T00:53:15;15.10;;;7.38;;
24084;SDS011;12268;52.110;5.548;2024-02-21T00:55:41;16.50;;;6.97;;
24084;SDS011;12268;52.110;5.548;2024-02-21T00:58:08;17.50;;;5.95;;
24084;SDS011;12268;52.110;5.548;2024-02-21T01:00:34;11.90;;;6.40;;
24084;SDS011;12268;52.110;5.548;2024-02-21T01:02:59;14.68;;;6.63;;
24084;SDS011;12268;52.110;5.548;2024-02-21T01:05:25;11.50;;;5.28;;
24084;SDS011;12268;52.110;5.548;2024-02-21T01:07:52;18.85;;;6.75;;
24084;SDS011;12268;52.110;5.548;2024-02-21T01:10:17;14.35;;;7.13;;
24084;SDS011;12268;52.110;5.548;2024-02-21T01:12:43;12.50;;;5.63;;
24084;SDS011;12268;52.110;5.548;2024-02-21T01:15:09;17.90;;;6.82;;
24084;SDS011;12268;52.110;5.548;2024-02-21T01:17:35;19.00;;;7.25;;
24084;SDS011;12268;52.110;5.548;2024-02-21T01:20:01;12.70;;;5.85;;
24084;SDS011;12268;52.110;5.548;2024-02-21T01:22:26;14.10;;;6.28;;
24084;SDS011;12268;52.110;5.548;2024-02-21T01:24:52;16.20;;;6.70;;
24084;SDS011;12268;52.110;5.548;2024-02-21T01:27:17;13.82;;;6.15;;
24084;SDS011;12268;52.110;5.548;2024-02-21T01:29:43;14.75;;;6.25;;
24084;SDS011;12268;52.110;5.548;2024-02-21T01:32:09;14.10;;;6.60;;
24084;SDS011;12268;52.110;5.548;2024-02-21T01:34:34;14.23;;;6.70;;
24084;SDS011;12268;52.110;5.548;2024-02-21T01:37:00;14.55;;;6.75;;
24084;SDS011;12268;52.110;5.548;2024-02-21T01:39:29;14.75;;;6.50;;
24084;SDS011;12268;52.110;5.548;2024-02-21T01:41:55;9.95;;;5.88;;
24084;SDS011;12268;52.110;5.548;2024-02-21T01:44:20;11.68;;;6.55;;
24084;SDS011;12268;52.110;5.548;2024-02-21T01:46:46;15.13;;;5.63;;
24084;SDS011;12268;52.110;5.548;2024-02-21T01:49:12;17.77;;;6.55;;
24084;SDS011;12268;52.110;5.548;2024-02-21T01:51:37;15.00;;;6.32;;
24084;SDS011;12268;52.110;5.548;2024-02-21T01:54:04;17.80;;;7.15;;
24084;SDS011;12268;52.110;5.548;2024-02-21T01:56:30;14.02;;;6.72;;
24084;SDS011;12268;52.110;5.548;2024-02-21T01:58:56;15.27;;;7.65;;
24084;SDS011;12268;52.110;5.548;2024-02-21T02:01:22;17.90;;;7.93;;
24084;SDS011;12268;52.110;5.548;2024-02-21T02:03:48;20.73;;;7.55;;
24084;SDS011;12268;52.110;5.548;2024-02-21T02:06:14;15.57;;;7.03;;
24084;SDS011;12268;52.110;5.548;2024-02-21T02:08:39;17.70;;;7.07;;
24084;SDS011;12268;52.110;5.548;2024-02-21T02:11:05;14.13;;;6.60;;
24084;SDS011;12268;52.110;5.548;2024-02-21T02:13:31;19.42;;;7.78;;
24084;SDS011;12268;52.110;5.548;2024-02-21T02:15:57;16.80;;;7.90;;
24084;SDS011;12268;52.110;5.548;2024-02-21T02:18:23;16.73;;;8.07;;
24084;SDS011;12268;52.110;5.548;2024-02-21T02:20:48;15.55;;;7.07;;
24084;SDS011;12268;52.110;5.548;2024-02-21T02:23:27;18.40;;;8.02;;
24084;SDS011;12268;52.110;5.548;2024-02-21T02:25:55;19.93;;;7.57;;
24084;SDS011;12268;52.110;5.548;2024-02-21T02:28:21;16.40;;;8.02;;
24084;SDS011;12268;52.110;5.548;2024-02-21T02:30:47;22.80;;;8.00;;
24084;SDS011;12268;52.110;5.548;2024-02-21T02:33:13;14.90;;;7.05;;
24084;SDS011;12268;52.110;5.548;2024-02-21T02:35:38;20.83;;;8.27;;
24084;SDS011;12268;52.110;5.548;2024-02-21T02:38:04;18.30;;;7.90;;
24084;SDS011;12268;52.110;5.548;2024-02-21T02:40:31;16.55;;;8.10;;
24084;SDS011;12268;52.110;5.548;2024-02-21T02:42:58;17.65;;;8.02;;
24084;SDS011;12268;52.110;5.548;2024-02-21T02:45:24;19.17;;;7.78;;
24084;SDS011;12268;52.110;5.548;2024-02-21T02:47:51;19.00;;;7.85;;
24084;SDS011;12268;52.110;5.548;2024-02-21T02:50:19;18.02;;;7.88;;
24084;SDS011;12268;52.110;5.548;2024-02-21T02:52:45;16.63;;;8.02;;
24084;SDS011;12268;52.110;5.548;2024-02-21T02:55:11;18.58;;;7.53;;
24084;SDS011;12268;52.110;5.548;2024-02-21T02:57:36;21.13;;;8.27;;
24084;SDS011;12268;52.110;5.548;2024-02-21T03:00:02;15.68;;;7.97;;
24084;SDS011;12268;52.110;5.548;2024-02-21T03:02:29;15.18;;;7.13;;
24084;SDS011;12268;52.110;5.548;2024-02-21T03:04:56;20.52;;;8.07;;
24084;SDS011;12268;52.110;5.548;2024-02-21T03:07:21;16.38;;;7.80;;
24084;SDS011;12268;52.110;5.548;2024-02-21T03:09:47;20.27;;;8.05;;
24084;SDS011;12268;52.110;5.548;2024-02-21T03:12:12;17.85;;;8.00;;
24084;SDS011;12268;52.110;5.548;2024-02-21T03:14:44;14.88;;;8.13;;
24084;SDS011;12268;52.110;5.548;2024-02-21T03:17:09;17.75;;;8.35;;
24084;SDS011;12268;52.110;5.548;2024-02-21T03:19:35;17.67;;;7.57;;
24084;SDS011;12268;52.110;5.548;2024-02-21T03:22:00;17.30;;;7.85;;
24084;SDS011;12268;52.110;5.548;2024-02-21T03:24:26;24.92;;;6.32;;
24084;SDS011;12268;52.110;5.548;2024-02-21T03:26:52;21.75;;;8.00;;
24084;SDS011;12268;52.110;5.548;2024-02-21T03:29:17;18.17;;;8.10;;
24084;SDS011;12268;52.110;5.548;2024-02-21T03:31:43;26.33;;;8.48;;
24084;SDS011;12268;52.110;5.548;2024-02-21T03:34:11;16.70;;;8.35;;
24084;SDS011;12268;52.110;5.548;2024-02-21T03:36:37;22.38;;;7.88;;
24084;SDS011;12268;52.110;5.548;2024-02-21T03:39:03;18.25;;;7.93;;
24084;SDS011;12268;52.110;5.548;2024-02-21T03:41:29;16.92;;;7.97;;
24084;SDS011;12268;52.110;5.548;2024-02-21T03:43:55;18.13;;;8.07;;
24084;SDS011;12268;52.110;5.548;2024-02-21T03:46:20;18.05;;;7.53;;
24084;SDS011;12268;52.110;5.548;2024-02-21T03:48:46;12.07;;;7.10;;
24084;SDS011;12268;52.110;5.548;2024-02-21T03:51:12;12.73;;;7.45;;
24084;SDS011;12268;52.110;5.548;2024-02-21T03:53:37;13.18;;;7.85;;
24084;SDS011;12268;52.110;5.548;2024-02-21T03:56:03;13.15;;;7.30;;
24084;SDS011;12268;52.110;5.548;2024-02-21T03:58:29;16.10;;;8.02;;
24084;SDS011;12268;52.110;5.548;2024-02-21T04:00:55;13.07;;;7.25;;
24084;SDS011;12268;52.110;5.548;2024-02-21T04:03:21;22.25;;;8.65;;
24084;SDS011;12268;52.110;5.548;2024-02-21T04:05:47;18.50;;;8.90;;
24084;SDS011;12268;52.110;5.548;2024-02-21T04:08:13;16.42;;;8.07;;
24084;SDS011;12268;52.110;5.548;2024-02-21T04:10:39;20.77;;;8.05;;
24084;SDS011;12268;52.110;5.548;2024-02-21T04:13:05;17.70;;;8.55;;
24084;SDS011;12268;52.110;5.548;2024-02-21T04:15:32;21.52;;;9.02;;
24084;SDS011;12268;52.110;5.548;2024-02-21T04:17:57;14.43;;;7.80;;
24084;SDS011;12268;52.110;5.548;2024-02-21T04:20:23;21.10;;;8.73;;
24084;SDS011;12268;52.110;5.548;2024-02-21T04:22:49;16.30;;;8.73;;
24084;SDS011;12268;52.110;5.548;2024-02-21T04:25:14;14.82;;;7.65;;
24084;SDS011;12268;52.110;5.548;2024-02-21T04:27:40;18.17;;;8.25;;
24084;SDS011;12268;52.110;5.548;2024-02-21T04:30:07;13.15;;;7.72;;
24084;SDS011;12268;52.110;5.548;2024-02-21T04:32:33;16.00;;;8.85;;
24084;SDS011;12268;52.110;5.548;2024-02-21T04:34:59;20.70;;;8.80;;
24084;SDS011;12268;52.110;5.548;2024-02-21T04:37:24;23.25;;;7.85;;
24084;SDS011;12268;52.110;5.548;2024-02-21T04:39:50;11.77;;;7.15;;
24084;SDS011;12268;52.110;5.548;2024-02-21T04:42:16;17.02;;;9.40;;
24084;SDS011;12268;52.110;5.548;2024-02-21T04:44:42;17.08;;;8.45;;
24084;SDS011;12268;52.110;5.548;2024-02-21T04:47:07;16.92;;;8.13;;
24084;SDS011;12268;52.110;5.548;2024-02-21T04:49:34;22.15;;;8.10;;
24084;SDS011;12268;52.110;5.548;2024-02-21T04:52:00;20.10;;;8.93;;
24084;SDS011;12268;52.110;5.548;2024-02-21T04:54:25;19.27;;;8.35;;
24084;SDS011;12268;52.110;5.548;2024-02-21T04:56:51;17.85;;;8.07;;
24084;SDS011;12268;52.110;5.548;2024-02-21T04:59:17;18.65;;;8.48;;
24084;SDS011;12268;52.110;5.548;2024-02-21T05:01:42;19.38;;;8.15;;
24084;SDS011;12268;52.110;5.548;2024-02-21T05:04:08;15.25;;;8.15;;
24084;SDS011;12268;52.110;5.548;2024-02-21T05:06:37;19.23;;;8.45;;
24084;SDS011;12268;52.110;5.548;2024-02-21T05:09:04;17.23;;;9.02;;
24084;SDS011;12268;52.110;5.548;2024-02-21T05:11:30;18.48;;;7.95;;
24084;SDS011;12268;52.110;5.548;2024-02-21T05:13:56;14.88;;;7.68;;
24084;SDS011;12268;52.110;5.548;2024-02-21T05:16:21;16.88;;;9.27;;
24084;SDS011;12268;52.110;5.548;2024-02-21T05:18:47;12.48;;;8.73;;
24084;SDS011;12268;52.110;5.548;2024-02-21T05:21:13;13.00;;;8.48;;
24084;SDS011;12268;52.110;5.548;2024-02-21T05:23:38;18.40;;;8.35;;
24084;SDS011;12268;52.110;5.548;2024-02-21T05:26:04;19.20;;;9.18;;
24084;SDS011;12268;52.110;5.548;2024-02-21T05:28:31;19.88;;;8.27;;
24084;SDS011;12268;52.110;5.548;2024-02-21T05:30:57;23.35;;;9.65;;
24084;SDS011;12268;52.110;5.548;2024-02-21T05:33:23;20.13;;;9.73;;
24084;SDS011;12268;52.110;5.548;2024-02-21T05:35:49;17.02;;;9.82;;
24084;SDS011;12268;52.110;5.548;2024-02-21T05:38:15;19.00;;;9.27;;
24084;SDS011;12268;52.110;5.548;2024-02-21T05:40:40;15.90;;;9.13;;
24084;SDS011;12268;52.110;5.548;2024-02-21T05:43:07;22.38;;;8.90;;
24084;SDS011;12268;52.110;5.548;2024-02-21T05:45:33;17.02;;;8.60;;
24084;SDS011;12268;52.110;5.548;2024-02-21T05:47:59;18.13;;;8.95;;
24084;SDS011;12268;52.110;5.548;2024-02-21T05:50:25;16.95;;;9.02;;
24084;SDS011;12268;52.110;5.548;2024-02-21T05:53:58;18.33;;;9.32;;
24084;SDS011;12268;52.110;5.548;2024-02-21T05:56:24;17.33;;;9.52;;
24084;SDS011;12268;52.110;5.548;2024-02-21T05:58:50;16.75;;;9.70;;
24084;SDS011;12268;52.110;5.548;2024-02-21T06:01:15;15.80;;;9.55;;
24084;SDS011;12268;52.110;5.548;2024-02-21T06:03:42;21.13;;;9.63;;
24084;SDS011;12268;52.110;5.548;2024-02-21T06:06:08;17.58;;;9.35;;
24084;SDS011;12268;52.110;5.548;2024-02-21T06:08:34;20.67;;;10.63;;
24084;SDS011;12268;52.110;5.548;2024-02-21T06:10:59;14.95;;;9.90;;
24084;SDS011;12268;52.110;5.548;2024-02-21T06:13:25;22.67;;;11.05;;
24084;SDS011;12268;52.110;5.548;2024-02-21T06:15:51;19.30;;;9.93;;
24084;SDS011;12268;52.110;5.548;2024-02-21T06:18:17;25.00;;;11.65;;
24084;SDS011;12268;52.110;5.548;2024-02-21T06:20:43;24.48;;;11.75;;
24084;SDS011;12268;52.110;5.548;2024-02-21T06:23:08;23.85;;;11.80;;
24084;SDS011;12268;52.110;5.548;2024-02-21T06:25:34;29.77;;;12.40;;
24084;SDS011;12268;52.110;5.548;2024-02-21T06:28:00;26.40;;;13.27;;
24084;SDS011;12268;52.110;5.548;2024-02-21T06:30:25;21.85;;;12.25;;
24084;SDS011;12268;52.110;5.548;2024-02-21T06:43:13;28.48;;;13.77;;
24084;SDS011;12268;52.110;5.548;2024-02-21T06:45:39;27.08;;;14.82;;
24084;SDS011;12268;52.110;5.548;2024-02-21T06:48:04;27.00;;;13.75;;
24084;SDS011;12268;52.110;5.548;2024-02-21T06:50:30;28.45;;;15.13;;
24084;SDS011;12268;52.110;5.548;2024-02-21T06:52:55;32.28;;;13.80;;
24084;SDS011;12268;52.110;5.548;2024-02-21T06:55:21;27.65;;;12.68;;
24084;SDS011;12268;52.110;5.548;2024-02-21T06:57:46;32.85;;;12.45;;
24084;SDS011;12268;52.110;5.548;2024-02-21T07:00:13;30.60;;;13.65;;
24084;SDS011;12268;52.110;5.548;2024-02-21T07:02:39;24.92;;;12.68;;
24084;SDS011;12268;52.110;5.548;2024-02-21T07:05:05;25.73;;;12.55;;
24084;SDS011;12268;52.110;5.548;2024-02-21T07:07:30;34.33;;;12.77;;
24084;SDS011;12268;52.110;5.548;2024-02-21T07:09:56;25.05;;;12.60;;
24084;SDS011;12268;52.110;5.548;2024-02-21T07:12:22;29.38;;;13.63;;
24084;SDS011;12268;52.110;5.548;2024-02-21T07:14:47;25.95;;;12.63;;
24084;SDS011;12268;52.110;5.548;2024-02-21T07:17:13;29.38;;;11.15;;
24084;SDS011;12268;52.110;5.548;2024-02-21T07:19:38;24.35;;;12.90;;
24084;SDS011;12268;52.110;5.548;2024-02-21T07:22:04;23.77;;;13.02;;
24084;SDS011;12268;52.110;5.548;2024-02-21T07:24:30;29.92;;;12.30;;
24084;SDS011;12268;52.110;5.548;2024-02-21T07:26:56;24.40;;;11.98;;
24084;SDS011;12268;52.110;5.548;2024-02-21T07:29:22;23.70;;;10.73;;
24084;SDS011;12268;52.110;5.548;2024-02-21T07:31:48;24.13;;;11.35;;
24084;SDS011;12268;52.110;5.548;2024-02-21T07:34:13;22.80;;;10.45;;
24084;SDS011;12268;52.110;5.548;2024-02-21T07:36:40;26.73;;;12.05;;
24084;SDS011;12268;52.110;5.548;2024-02-21T07:39:07;21.60;;;11.18;;
24084;SDS011;12268;52.110;5.548;2024-02-21T07:41:33;19.55;;;10.82;;
24084;SDS011;12268;52.110;5.548;2024-02-21T07:43:59;18.88;;;10.48;;
24084;SDS011;12268;52.110;5.548;2024-02-21T07:46:25;22.15;;;10.68;;
24084;SDS011;12268;52.110;5.548;2024-02-21T07:48:50;22.23;;;10.95;;
24084;SDS011;12268;52.110;5.548;2024-02-21T07:51:16;20.35;;;10.02;;
24084;SDS011;12268;52.110;5.548;2024-02-21T07:53:43;23.52;;;10.77;;
24084;SDS011;12268;52.110;5.548;2024-02-21T07:56:13;21.17;;;10.63;;
24084;SDS011;12268;52.110;5.548;2024-02-21T07:58:39;21.90;;;10.70;;
24084;SDS011;12268;52.110;5.548;2024-02-21T08:01:05;25.55;;;11.25;;
24084;SDS011;12268;52.110;5.548;2024-02-21T08:03:31;21.50;;;10.35;;
24084;SDS011;12268;52.110;5.548;2024-02-21T08:05:56;19.52;;;10.18;;
24084;SDS011;12268;52.110;5.548;2024-02-21T08:08:22;19.98;;;9.95;;
24084;SDS011;12268;52.110;5.548;2024-02-21T08:10:51;22.23;;;10.60;;
24084;SDS011;12268;52.110;5.548;2024-02-21T08:13:16;23.98;;;10.15;;
24084;SDS011;12268;52.110;5.548;2024-02-21T08:15:42;22.38;;;10.27;;
24084;SDS011;12268;52.110;5.548;2024-02-21T08:18:08;28.70;;;10.63;;
24084;SDS011;12268;52.110;5.548;2024-02-21T08:20:34;22.05;;;10.63;;
24084;SDS011;12268;52.110;5.548;2024-02-21T08:23:00;25.30;;;10.27;;
24084;SDS011;12268;52.110;5.548;2024-02-21T08:25:26;16.63;;;9.82;;
24084;SDS011;12268;52.110;5.548;2024-02-21T08:27:51;23.70;;;10.63;;
24084;SDS011;12268;52.110;5.548;2024-02-21T08:30:20;20.63;;;9.95;;
24084;SDS011;12268;52.110;5.548;2024-02-21T08:32:46;17.98;;;9.95;;
24084;SDS011;12268;52.110;5.548;2024-02-21T08:35:11;19.58;;;10.45;;
24084;SDS011;12268;52.110;5.548;2024-02-21T08:37:37;16.23;;;8.68;;
24084;SDS011;12268;52.110;5.548;2024-02-21T08:40:03;24.85;;;11.40;;
24084;SDS011;12268;52.110;5.548;2024-02-21T08:42:33;17.90;;;9.65;;
24084;SDS011;12268;52.110;5.548;2024-02-21T08:45:04;20.67;;;9.80;;
24084;SDS011;12268;52.110;5.548;2024-02-21T08:47:29;18.88;;;9.52;;
24084;SDS011;12268;52.110;5.548;2024-02-21T08:49:55;19.38;;;9.13;;
24084;SDS011;12268;52.110;5.548;2024-02-21T08:52:21;22.63;;;9.93;;
24084;SDS011;12268;52.110;5.548;2024-02-21T08:54:46;21.13;;;10.02;;
24084;SDS011;12268;52.110;5.548;2024-02-21T08:57:12;18.88;;;9.52;;
24084;SDS011;12268;52.110;5.548;2024-02-21T08:59:39;20.00;;;10.15;;
24084;SDS011;12268;52.110;5.548;2024-02-21T09:02:05;22.67;;;9.98;;
24084;SDS011;12268;52.110;5.548;2024-02-21T09:04:32;20.30;;;8.77;;
24084;SDS011;12268;52.110;5.548;2024-02-21T09:06:58;18.10;;;9.27;;
24084;SDS011;12268;52.110;5.548;2024-02-21T09:09:24;24.77;;;9.82;;
24084;SDS011;12268;52.110;5.548;2024-02-21T09:11:49;18.95;;;9.18;;
24084;SDS011;12268;52.110;5.548;2024-02-21T09:14:15;24.48;;;10.20;;
24084;SDS011;12268;52.110;5.548;2024-02-21T09:16:40;17.77;;;8.82;;
24084;SDS011;12268;52.110;5.548;2024-02-21T09:19:06;17.02;;;7.35;;
24084;SDS011;12268;52.110;5.548;2024-02-21T09:21:35;18.92;;;9.70;;
24084;SDS011;12268;52.110;5.548;2024-02-21T09:24:01;18.38;;;7.65;;
24084;SDS011;12268;52.110;5.548;2024-02-21T09:26:27;17.40;;;9.35;;
24084;SDS011;12268;52.110;5.548;2024-02-21T09:28:53;25.08;;;9.65;;
24084;SDS011;12268;52.110;5.548;2024-02-21T09:31:19;19.70;;;8.77;;
24084;SDS011;12268;52.110;5.548;2024-02-21T09:33:44;19.05;;;8.68;;
24084;SDS011;12268;52.110;5.548;2024-02-21T09:36:10;20.48;;;7.72;;
24084;SDS011;12268;52.110;5.548;2024-02-21T09:38:36;17.15;;;8.48;;
24084;SDS011;12268;52.110;5.548;2024-02-21T09:46:15;14.35;;;6.82;;
24084;SDS011;12268;52.110;5.548;2024-02-21T09:51:17;15.65;;;7.88;;
24084;SDS011;12268;52.110;5.548;2024-02-21T09:53:45;20.77;;;9.82;;
24084;SDS011;12268;52.110;5.548;2024-02-21T09:56:12;15.82;;;9.02;;
24084;SDS011;12268;52.110;5.548;2024-02-21T09:58:38;17.58;;;8.85;;
24084;SDS011;12268;52.110;5.548;2024-02-21T10:01:06;16.45;;;8.20;;
24084;SDS011;12268;52.110;5.548;2024-02-21T10:03:32;15.45;;;9.13;;
24084;SDS011;12268;52.110;5.548;2024-02-21T10:06:01;14.35;;;7.43;;
24084;SDS011;12268;52.110;5.548;2024-02-21T10:08:27;15.45;;;7.40;;
24084;SDS011;12268;52.110;5.548;2024-02-21T10:10:52;14.35;;;7.60;;
24084;SDS011;12268;52.110;5.548;2024-02-21T10:13:25;11.40;;;7.60;;
24084;SDS011;12268;52.110;5.548;2024-02-21T10:16:04;15.82;;;7.80;;
24084;SDS011;12268;52.110;5.548;2024-02-21T10:18:31;13.35;;;7.57;;
24084;SDS011;12268;52.110;5.548;2024-02-21T10:21:01;14.93;;;6.45;;
24084;SDS011;12268;52.110;5.548;2024-02-21T10:23:27;11.63;;;6.25;;
24084;SDS011;12268;52.110;5.548;2024-02-21T10:25:53;11.82;;;6.70;;
24084;SDS011;12268;52.110;5.548;2024-02-21T10:28:18;10.73;;;6.05;;
24084;SDS011;12268;52.110;5.548;2024-02-21T10:30:51;10.40;;;5.97;;
24084;SDS011;12268;52.110;5.548;2024-02-21T10:33:17;14.07;;;6.85;;
24084;SDS011;12268;52.110;5.548;2024-02-21T10:35:46;10.20;;;6.82;;
24084;SDS011;12268;52.110;5.548;2024-02-21T10:38:12;12.50;;;6.28;;
24084;SDS011;12268;52.110;5.548;2024-02-21T10:40:38;10.95;;;6.43;;
24084;SDS011;12268;52.110;5.548;2024-02-21T10:43:03;9.20;;;5.97;;
24084;SDS011;12268;52.110;5.548;2024-02-21T10:45:36;10.45;;;6.53;;
24084;SDS011;12268;52.110;5.548;2024-02-21T10:56:29;9.82;;;5.88;;
24084;SDS011;12268;52.110;5.548;2024-02-21T10:58:57;8.85;;;5.90;;
24084;SDS011;12268;52.110;5.548;2024-02-21T11:01:25;14.88;;;6.07;;
24084;SDS011;12268;52.110;5.548;2024-02-21T11:03:54;8.75;;;5.18;;
24084;SDS011;12268;52.110;5.548;2024-02-21T11:06:21;11.73;;;7.22;;
24084;SDS011;12268;52.110;5.548;2024-02-21T11:08:50;9.15;;;6.32;;
24084;SDS011;12268;52.110;5.548;2024-02-21T11:11:43;12.15;;;6.95;;
24084;SDS011;12268;52.110;5.548;2024-02-21T11:14:10;15.85;;;7.03;;
24084;SDS011;12268;52.110;5.548;2024-02-21T11:19:05;10.07;;;6.40;;
24084;SDS011;12268;52.110;5.548;2024-02-21T11:21:36;12.65;;;6.70;;
24084;SDS011;12268;52.110;5.548;2024-02-21T11:24:03;11.45;;;6.47;;
24084;SDS011;12268;52.110;5.548;2024-02-21T11:26:29;11.63;;;6.68;;
24084;SDS011;12268;52.110;5.548;2024-02-21T11:29:02;11.88;;;6.18;;
24084;SDS011;12268;52.110;5.548;2024-02-21T11:31:38;13.23;;;6.63;;
24084;SDS011;12268;52.110;5.548;2024-02-21T11:34:08;14.38;;;7.30;;
24084;SDS011;12268;52.110;5.548;2024-02-21T11:36:35;12.73;;;7.28;;
24084;SDS011;12268;52.110;5.548;2024-02-21T11:39:04;13.95;;;8.73;;
24084;SDS011;12268;52.110;5.548;2024-02-21T11:41:30;14.40;;;7.93;;
24084;SDS011;12268;52.110;5.548;2024-02-21T11:43:56;12.32;;;8.43;;
24084;SDS011;12268;52.110;5.548;2024-02-21T11:46:22;16.30;;;8.32;;
24084;SDS011;12268;52.110;5.548;2024-02-21T11:48:48;13.60;;;8.52;;
24084;SDS011;12268;52.110;5.548;2024-02-21T11:51:26;14.30;;;8.63;;
24084;SDS011;12268;52.110;5.548;2024-02-21T11:53:54;17.85;;;7.57;;
24084;SDS011;12268;52.110;5.548;2024-02-21T11:56:20;14.55;;;7.93;;
24084;SDS011;12268;52.110;5.548;2024-02-21T11:58:47;17.40;;;9.20;;
24084;SDS011;12268;52.110;5.548;2024-02-21T12:01:13;12.38;;;7.00;;
24084;SDS011;12268;52.110;5.548;2024-02-21T12:03:39;12.70;;;7.82;;
24084;SDS011;12268;52.110;5.548;2024-02-21T12:06:06;16.98;;;8.77;;
24084;SDS011;12268;52.110;5.548;2024-02-21T12:08:42;15.20;;;9.52;;
24084;SDS011;12268;52.110;5.548;2024-02-21T12:11:20;16.65;;;8.57;;
24084;SDS011;12268;52.110;5.548;2024-02-21T12:13:59;14.90;;;8.75;;
24084;SDS011;12268;52.110;5.548;2024-02-21T12:16:30;16.85;;;8.18;;
24084;SDS011;12268;52.110;5.548;2024-02-21T12:18:59;18.02;;;8.75;;
24084;SDS011;12268;52.110;5.548;2024-02-21T12:21:25;15.82;;;7.65;;
24084;SDS011;12268;52.110;5.548;2024-02-21T12:23:54;13.90;;;7.18;;
24084;SDS011;12268;52.110;5.548;2024-02-21T12:26:20;15.50;;;7.93;;
24084;SDS011;12268;52.110;5.548;2024-02-21T12:28:45;14.20;;;7.13;;
24084;SDS011;12268;52.110;5.548;2024-02-21T12:31:11;12.77;;;7.82;;
24084;SDS011;12268;52.110;5.548;2024-02-21T12:33:37;12.27;;;7.10;;
24084;SDS011;12268;52.110;5.548;2024-02-21T12:36:03;13.35;;;7.65;;
24084;SDS011;12268;52.110;5.548;2024-02-21T12:38:29;9.85;;;6.80;;
24084;SDS011;12268;52.110;5.548;2024-02-21T12:40:55;12.77;;;6.82;;
24084;SDS011;12268;52.110;5.548;2024-02-21T12:43:22;12.80;;;6.80;;
24084;SDS011;12268;52.110;5.548;2024-02-21T12:45:48;13.98;;;7.90;;
24084;SDS011;12268;52.110;5.548;2024-02-21T12:48:14;12.98;;;7.13;;
24084;SDS011;12268;52.110;5.548;2024-02-21T12:50:40;9.68;;;6.22;;
24084;SDS011;12268;52.110;5.548;2024-02-21T12:53:16;13.65;;;7.22;;
24084;SDS011;12268;52.110;5.548;2024-02-21T12:55:49;11.52;;;6.68;;
24084;SDS011;12268;52.110;5.548;2024-02-21T12:58:15;10.18;;;6.38;;
24084;SDS011;12268;52.110;5.548;2024-02-21T13:00:41;12.90;;;7.13;;
24084;SDS011;12268;52.110;5.548;2024-02-21T13:03:07;12.90;;;6.55;;
24084;SDS011;12268;52.110;5.548;2024-02-21T13:05:35;11.25;;;7.10;;
24084;SDS011;12268;52.110;5.548;2024-02-21T13:08:01;10.30;;;6.13;;
24084;SDS011;12268;52.110;5.548;2024-02-21T13:10:27;13.10;;;6.68;;
24084;SDS011;12268;52.110;5.548;2024-02-21T13:12:53;12.40;;;7.03;;
24084;SDS011;12268;52.110;5.548;2024-02-21T13:15:19;14.68;;;6.95;;
24084;SDS011;12268;52.110;5.548;2024-02-21T13:17:45;11.13;;;5.43;;
24084;SDS011;12268;52.110;5.548;2024-02-21T13:20:10;8.80;;;5.93;;
24084;SDS011;12268;52.110;5.548;2024-02-21T13:22:36;12.45;;;6.65;;
24084;SDS011;12268;52.110;5.548;2024-02-21T13:25:03;11.85;;;5.35;;
24084;SDS011;12268;52.110;5.548;2024-02-21T13:27:29;9.38;;;5.35;;
24084;SDS011;12268;52.110;5.548;2024-02-21T13:29:55;11.30;;;5.75;;
24084;SDS011;12268;52.110;5.548;2024-02-21T13:32:21;12.32;;;6.20;;
24084;SDS011;12268;52.110;5.548;2024-02-21T13:34:47;10.00;;;5.60;;
24084;SDS011;12268;52.110;5.548;2024-02-21T13:37:13;16.98;;;5.90;;
24084;SDS011;12268;52.110;5.548;2024-02-21T13:39:40;12.63;;;5.40;;
24084;SDS011;12268;52.110;5.548;2024-02-21T13:42:05;11.00;;;6.47;;
24084;SDS011;12268;52.110;5.548;2024-02-21T13:44:31;13.20;;;5.43;;
24084;SDS011;12268;52.110;5.548;2024-02-21T13:46:57;10.63;;;5.78;;
24084;SDS011;12268;52.110;5.548;2024-02-21T13:49:23;11.85;;;5.10;;
24084;SDS011;12268;52.110;5.548;2024-02-21T13:51:48;13.13;;;5.82;;
24084;SDS011;12268;52.110;5.548;2024-02-21T13:54:14;8.55;;;5.28;;
24084;SDS011;12268;52.110;5.548;2024-02-21T13:56:42;10.35;;;6.03;;
24084;SDS011;12268;52.110;5.548;2024-02-21T13:59:08;12.43;;;6.00;;
24084;SDS011;12268;52.110;5.548;2024-02-21T14:01:34;14.13;;;5.65;;
24084;SDS011;12268;52.110;5.548;2024-02-21T14:04:00;10.55;;;5.47;;
24084;SDS011;12268;52.110;5.548;2024-02-21T14:06:26;9.45;;;4.85;;
24084;SDS011;12268;52.110;5.548;2024-02-21T14:08:52;9.57;;;4.47;;
24084;SDS011;12268;52.110;5.548;2024-02-21T14:11:18;8.82;;;5.13;;
24084;SDS011;12268;52.110;5.548;2024-02-21T14:13:43;14.55;;;5.38;;
24084;SDS011;12268;52.110;5.548;2024-02-21T14:16:10;10.15;;;5.47;;
24084;SDS011;12268;52.110;5.548;2024-02-21T14:18:41;12.88;;;5.82;;
24084;SDS011;12268;52.110;5.548;2024-02-21T14:21:08;8.43;;;5.57;;
24084;SDS011;12268;52.110;5.548;2024-02-21T14:23:35;9.75;;;4.72;;
24084;SDS011;12268;52.110;5.548;2024-02-21T14:26:02;13.32;;;5.63;;
24084;SDS011;12268;52.110;5.548;2024-02-21T14:28:28;8.05;;;4.20;;
24084;SDS011;12268;52.110;5.548;2024-02-21T14:30:54;9.93;;;4.10;;
24084;SDS011;12268;52.110;5.548;2024-02-21T14:33:22;12.07;;;5.20;;
24084;SDS011;12268;52.110;5.548;2024-02-21T14:35:55;11.05;;;5.07;;
24084;SDS011;12268;52.110;5.548;2024-02-21T14:38:21;14.45;;;4.95;;
24084;SDS011;12268;52.110;5.548;2024-02-21T14:40:47;9.75;;;4.45;;
24084;SDS011;12268;52.110;5.548;2024-02-21T14:43:13;10.90;;;4.72;;
24084;SDS011;12268;52.110;5.548;2024-02-21T14:45:39;9.10;;;4.40;;
24084;SDS011;12268;52.110;5.548;2024-02-21T14:48:05;6.25;;;3.35;;
24084;SDS011;12268;52.110;5.548;2024-02-21T14:50:31;9.05;;;4.47;;
24084;SDS011;12268;52.110;5.548;2024-02-21T14:52:57;8.68;;;3.67;;
24084;SDS011;12268;52.110;5.548;2024-02-21T14:55:24;7.40;;;3.88;;
24084;SDS011;12268;52.110;5.548;2024-02-21T14:57:50;9.38;;;4.45;;
24084;SDS011;12268;52.110;5.548;2024-02-21T15:00:15;7.47;;;4.20;;
24084;SDS011;12268;52.110;5.548;2024-02-21T15:02:42;9.52;;;4.18;;
24084;SDS011;12268;52.110;5.548;2024-02-21T15:05:10;7.07;;;3.78;;